createdAt,value
2023-03-16T00:02:21.753Z,101064.47
2023-03-16T00:04:48.286Z,101065.31
2023-03-16T00:07:15.515Z,101067.00
2023-03-16T00:09:42.681Z,101066.81
2023-03-16T00:12:17.690Z,101072.78
2023-03-16T00:14:48.806Z,101082.31
2023-03-16T00:17:20.689Z,101079.50
2023-03-16T00:19:55.100Z,101076.81
2023-03-16T00:22:23.764Z,101075.81
2023-03-16T00:24:50.203Z,101083.63
2023-03-16T00:27:17.286Z,101077.41
2023-03-16T00:29:55.574Z,101084.22
2023-03-16T00:32:28.738Z,101082.44
2023-03-16T00:34:55.752Z,101080.66
2023-03-16T00:37:23.890Z,101079.66
2023-03-16T00:39:51.650Z,101080.44
2023-03-16T00:42:19.774Z,101083.03
2023-03-16T00:44:46.608Z,101076.06
2023-03-16T00:47:16.656Z,101085.56
2023-03-16T00:49:44.156Z,101086.38
2023-03-16T00:52:15.930Z,101094.94
2023-03-16T00:54:44.335Z,101088.97
2023-03-16T00:57:18.746Z,101088.97
2023-03-16T00:59:46.308Z,101088.84
2023-03-16T01:02:13.749Z,101096.53
2023-03-16T01:04:41.332Z,101089.47
2023-03-16T01:07:09.313Z,101086.88
2023-03-16T01:09:37.091Z,101084.97
2023-03-16T01:12:06.186Z,101087.47
2023-03-16T01:14:34.941Z,101074.38
2023-03-16T01:17:04.443Z,101075.38
2023-03-16T01:19:34.109Z,101070.88
2023-03-16T01:22:00.560Z,101078.69
2023-03-16T01:24:27.042Z,101072.47
2023-03-16T01:26:54.294Z,101075.06
2023-03-16T01:29:21.264Z,101065.38
2023-03-16T01:31:50.206Z,101062.69
2023-03-16T01:34:18.657Z,101062.69
2023-03-16T01:36:48.408Z,101058.22
2023-03-16T01:39:16.997Z,101051.09
2023-03-16T01:41:47.922Z,101051.00
2023-03-16T01:44:18.639Z,101052.72
2023-03-16T01:46:45.304Z,101051.78
2023-03-16T01:49:16.659Z,101048.22
2023-03-16T01:51:50.854Z,101045.50
2023-03-16T01:54:31.217Z,101045.41
2023-03-16T01:57:21.999Z,101047.91
2023-03-16T02:00:00.379Z,101049.59
2023-03-16T02:02:31.163Z,101047.81
2023-03-16T02:05:14.359Z,101045.13
2023-03-16T02:07:46.614Z,101043.31
2023-03-16T02:10:15.900Z,101042.31
2023-03-16T02:12:43.287Z,101037.03
2023-03-16T02:15:11.373Z,101038.75
2023-03-16T02:17:38.079Z,101039.44
2023-03-16T02:20:27.999Z,101045.47
2023-03-16T02:22:54.985Z,101041.94
2023-03-16T02:25:39.726Z,101050.53
2023-03-16T02:28:29.739Z,101050.53
2023-03-16T02:30:57.707Z,101046.16
2023-03-16T02:33:26.261Z,101057.31
2023-03-16T02:35:52.996Z,101058.94
2023-03-16T02:38:19.513Z,101054.53
2023-03-16T02:41:01.600Z,101058.81
2023-03-16T02:43:35.145Z,101061.41
2023-03-16T02:46:15.731Z,101058.81
2023-03-16T02:49:16.326Z,101058.72
2023-03-16T02:51:45.798Z,101057.84
2023-03-16T02:54:14.133Z,101053.34
2023-03-16T02:56:41.950Z,101045.47
2023-03-16T02:59:12.217Z,101043.63
2023-03-16T03:01:39.228Z,101035.84
2023-03-16T03:04:06.293Z,101036.66
2023-03-16T03:06:33.402Z,101029.66
2023-03-16T03:09:02.046Z,101035.75
2023-03-16T03:11:29.221Z,101027.97
2023-03-16T03:13:56.104Z,101026.97
2023-03-16T03:16:25.519Z,101026.97
2023-03-16T03:18:53.973Z,101022.59
2023-03-16T03:21:20.880Z,101030.38
2023-03-16T03:23:47.615Z,101020.69
2023-03-16T03:26:15.427Z,101021.41
2023-03-16T03:28:43.816Z,101023.19
2023-03-16T03:31:21.146Z,101023.19
2023-03-16T03:33:47.925Z,101024.97
2023-03-16T03:36:14.847Z,101027.47
2023-03-16T03:38:43.513Z,101024.88
2023-03-16T03:41:10.196Z,101022.28
2023-03-16T03:43:38.611Z,101022.19
2023-03-16T03:46:07.789Z,101023.00
2023-03-16T03:48:34.589Z,101038.56
2023-03-16T03:51:01.441Z,101028.97
2023-03-16T03:53:36.864Z,101029.78
2023-03-16T03:56:14.043Z,101033.06
2023-03-16T03:58:41.055Z,101037.34
2023-03-16T04:01:07.771Z,101039.94
2023-03-16T04:03:34.431Z,101032.97
2023-03-16T04:06:01.159Z,101031.19
2023-03-16T04:08:29.157Z,101029.38
2023-03-16T04:10:55.838Z,101027.59
2023-03-16T04:13:22.754Z,101024.91
2023-03-16T04:15:49.691Z,101037.75
2023-03-16T04:18:19.653Z,101042.06
2023-03-16T04:20:46.307Z,101040.25
2023-03-16T04:23:17.056Z,101036.78
2023-03-16T04:25:46.488Z,101037.56
2023-03-16T04:28:17.962Z,101031.47
2023-03-16T04:30:47.779Z,101038.47
2023-03-16T04:33:18.874Z,101029.69
2023-03-16T04:35:46.220Z,101035.63
2023-03-16T04:38:14.830Z,101033.03
2023-03-16T04:40:51.227Z,101036.44
2023-03-16T04:43:22.960Z,101040.75
2023-03-16T04:45:51.987Z,101044.16
2023-03-16T04:48:19.451Z,101035.44
2023-03-16T04:50:47.765Z,101037.13
2023-03-16T04:53:15.772Z,101038.88
2023-03-16T04:55:46.032Z,101031.06
2023-03-16T04:58:16.229Z,101035.34
2023-03-16T05:00:43.041Z,101039.88
2023-03-16T05:03:18.741Z,101031.25
2023-03-16T05:05:47.186Z,101037.38
2023-03-16T05:08:15.973Z,101039.97
2023-03-16T05:10:46.547Z,101035.53
2023-03-16T05:13:13.032Z,101040.75
2023-03-16T05:15:39.793Z,101045.06
2023-03-16T05:18:21.672Z,101033.84
2023-03-16T05:20:53.505Z,101038.94
2023-03-16T05:23:20.655Z,101043.34
2023-03-16T05:25:52.208Z,101040.75
2023-03-16T05:28:21.430Z,101046.84
2023-03-16T05:30:54.337Z,101047.84
2023-03-16T05:33:25.589Z,101047.84
2023-03-16T05:35:58.298Z,101047.16
2023-03-16T05:38:27.540Z,101044.56
2023-03-16T05:40:55.332Z,101048.94
2023-03-16T05:43:34.355Z,101041.25
2023-03-16T05:46:00.892Z,101035.28
2023-03-16T05:48:27.497Z,101034.47
2023-03-16T05:50:57.129Z,101030.28
2023-03-16T05:53:28.995Z,101039.06
2023-03-16T05:56:01.248Z,101040.94
2023-03-16T05:58:28.306Z,101035.16
2023-03-16T06:00:55.314Z,101028.38
2023-03-16T06:03:26.275Z,101037.25
2023-03-16T06:05:53.938Z,101038.34
2023-03-16T06:08:28.253Z,101019.59
2023-03-16T06:11:00.381Z,101022.47
2023-03-16T06:13:26.866Z,101027.16
2023-03-16T06:15:54.024Z,101023.16
2023-03-16T06:18:22.123Z,101011.47
2023-03-16T06:20:48.977Z,101007.44
2023-03-16T06:23:16.492Z,100998.34
2023-03-16T06:25:43.848Z,101004.13
2023-03-16T06:28:11.101Z,101006.31
2023-03-16T06:30:38.233Z,101004.38
2023-03-16T06:33:04.868Z,101006.03
2023-03-16T06:35:31.600Z,101012.88
2023-03-16T06:38:10.155Z,101009.56
2023-03-16T06:40:56.934Z,101016.78
2023-03-16T06:43:23.880Z,101028.28
2023-03-16T06:45:50.875Z,101030.34
2023-03-16T06:48:17.544Z,101034.28
2023-03-16T06:50:46.999Z,101036.41
2023-03-16T06:53:18.619Z,101039.41
2023-03-16T06:55:46.072Z,101025.69
2023-03-16T06:58:12.537Z,101033.88
2023-03-16T07:00:39.308Z,101041.16
2023-03-16T07:03:06.963Z,101045.88
2023-03-16T07:05:38.526Z,101053.03
2023-03-16T07:08:08.129Z,101043.47
2023-03-16T07:10:34.958Z,101052.16
2023-03-16T07:13:01.474Z,101059.97
2023-03-16T07:15:29.270Z,101057.13
2023-03-16T07:17:57.409Z,101050.13
2023-03-16T07:20:28.809Z,101042.94
2023-03-16T07:22:55.502Z,101051.72
2023-03-16T07:25:22.491Z,101054.16
2023-03-16T07:27:53.408Z,101062.66
2023-03-16T07:30:26.171Z,101068.31
2023-03-16T07:32:53.052Z,101070.38
2023-03-16T07:35:22.409Z,101071.34
2023-03-16T07:37:49.493Z,101075.09
2023-03-16T07:40:16.510Z,101075.34
2023-03-16T07:42:44.122Z,101072.16
2023-03-16T07:45:15.357Z,101072.47
2023-03-16T07:47:42.963Z,101078.09
2023-03-16T07:50:23.228Z,101086.31
2023-03-16T07:52:49.934Z,101085.41
2023-03-16T07:55:17.152Z,101074.91
2023-03-16T07:57:47.957Z,101084.50
2023-03-16T08:00:20.496Z,101077.41
2023-03-16T08:02:47.204Z,101079.13
2023-03-16T08:05:15.411Z,101078.22
2023-03-16T08:07:46.675Z,101078.22
2023-03-16T08:10:18.760Z,101073.00
2023-03-16T08:12:54.121Z,101070.53
2023-03-16T08:15:21.616Z,101076.78
2023-03-16T08:17:49.679Z,101076.00
2023-03-16T08:20:22.413Z,101078.00
2023-03-16T08:22:49.624Z,101081.59
2023-03-16T08:25:19.855Z,101075.66
2023-03-16T08:27:58.135Z,101075.78
2023-03-16T08:30:25.514Z,101087.34
2023-03-16T08:33:08.147Z,101087.63
2023-03-16T08:35:35.952Z,101090.59
2023-03-16T08:38:02.701Z,101083.00
2023-03-16T08:40:29.705Z,101078.91
2023-03-16T08:42:57.914Z,101093.25
2023-03-16T08:45:25.146Z,101096.09
2023-03-16T08:47:51.996Z,101095.53
2023-03-16T08:50:19.952Z,101102.91
2023-03-16T08:52:48.956Z,101102.38
2023-03-16T08:55:16.258Z,101093.00
2023-03-16T08:57:45.133Z,101089.94
2023-03-16T09:00:13.106Z,101088.44
2023-03-16T09:02:40.880Z,101088.78
2023-03-16T09:05:12.701Z,101092.59
2023-03-16T09:07:40.059Z,101092.94
2023-03-16T09:10:07.698Z,101084.50
2023-03-16T09:12:37.999Z,101082.19
2023-03-16T09:15:05.685Z,101088.75
2023-03-16T09:17:32.264Z,101092.69
2023-03-16T09:20:05.517Z,101089.59
2023-03-16T09:22:42.099Z,101086.53
2023-03-16T09:25:10.479Z,101078.16
2023-03-16T09:27:37.445Z,101076.81
2023-03-16T09:30:08.529Z,101071.16
2023-03-16T09:32:37.355Z,101075.88
2023-03-16T09:35:07.262Z,101068.31
2023-03-16T09:37:44.757Z,101070.19
2023-03-16T09:40:26.606Z,101064.19
2023-03-16T09:43:22.981Z,101069.66
2023-03-16T09:46:02.893Z,101063.63
2023-03-16T09:48:33.836Z,101060.13
2023-03-16T09:51:03.559Z,101059.38
2023-03-16T09:53:39.025Z,101048.00
2023-03-16T09:56:22.668Z,101060.38
2023-03-16T09:58:49.248Z,101056.06
2023-03-16T10:01:35.690Z,101055.16
2023-03-16T10:04:09.626Z,101045.63
2023-03-16T10:06:48.615Z,101052.78
2023-03-16T10:09:33.106Z,101038.06
2023-03-16T10:12:04.071Z,101043.63
2023-03-16T10:14:40.988Z,101038.53
2023-03-16T10:17:17.014Z,101039.47
2023-03-16T10:20:04.920Z,101034.22
2023-03-16T10:22:39.269Z,101035.03
2023-03-16T10:25:34.290Z,101040.25
2023-03-16T10:28:00.890Z,101034.94
2023-03-16T10:30:29.250Z,101036.69
2023-03-16T10:33:00.548Z,101028.81
2023-03-16T10:35:49.797Z,101043.88
2023-03-16T10:38:30.612Z,101035.22
2023-03-16T10:41:00.771Z,101025.59
2023-03-16T10:43:29.637Z,101031.00
2023-03-16T10:46:02.189Z,101029.38
2023-03-16T10:48:34.091Z,101023.41
2023-03-16T10:51:07.889Z,101025.34
2023-03-16T10:53:39.022Z,101014.91
2023-03-16T10:56:14.752Z,101011.56
2023-03-16T10:58:43.421Z,101014.34
2023-03-16T11:01:13.613Z,101005.69
2023-03-16T11:03:41.615Z,101008.38
2023-03-16T11:06:20.461Z,101005.06
2023-03-16T11:08:47.742Z,101005.16
2023-03-16T11:11:18.594Z,101009.69
2023-03-16T11:13:48.952Z,101006.31
2023-03-16T11:16:30.738Z,101003.81
2023-03-16T11:19:11.118Z,101003.03
2023-03-16T11:21:58.884Z,100988.31
2023-03-16T11:24:37.267Z,100974.47
2023-03-16T11:27:12.721Z,100972.03
2023-03-16T11:29:52.717Z,100974.88
2023-03-16T11:32:25.555Z,100961.00
2023-03-16T11:34:53.439Z,100972.59
2023-03-16T11:37:38.541Z,100970.31
2023-03-16T11:40:47.497Z,100964.63
2023-03-16T11:43:38.110Z,100967.72
2023-03-16T11:46:10.745Z,100959.41
2023-03-16T11:48:42.798Z,100961.56
2023-03-16T11:51:29.911Z,100955.75
2023-03-16T11:54:14.353Z,100950.88
2023-03-16T11:56:50.594Z,100942.41
2023-03-16T11:59:28.755Z,100942.56
2023-03-16T12:02:10.761Z,100941.72
2023-03-16T12:04:46.547Z,100934.72
2023-03-16T12:07:20.412Z,100935.59
2023-03-16T12:09:56.052Z,100916.97
2023-03-16T12:12:45.424Z,100913.31
2023-03-16T12:15:27.865Z,100907.06
2023-03-16T12:17:58.500Z,100905.19
2023-03-16T12:20:31.620Z,100905.09
2023-03-16T12:23:06.050Z,100903.31
2023-03-16T12:25:38.315Z,100897.06
2023-03-16T12:28:10.554Z,100904.94
2023-03-16T12:30:58.164Z,100910.13
2023-03-16T12:33:45.714Z,100897.81
2023-03-16T12:36:50.000Z,100897.81
2023-03-16T12:39:38.150Z,100890.00
2023-03-16T12:42:30.992Z,100893.63
2023-03-16T12:45:03.194Z,100880.56
2023-03-16T12:47:42.865Z,100885.19
2023-03-16T12:50:15.900Z,100866.94
2023-03-16T12:52:47.794Z,100873.31
2023-03-16T12:55:18.779Z,100874.41
2023-03-16T12:57:48.779Z,100872.84
2023-03-16T13:00:16.489Z,100865.06
2023-03-16T13:02:50.633Z,100866.13
2023-03-16T13:05:27.534Z,100857.44
2023-03-16T13:08:08.022Z,100863.75
2023-03-16T13:10:34.675Z,100862.09
2023-03-16T13:13:18.273Z,100852.53
2023-03-16T13:15:47.496Z,100859.69
2023-03-16T13:18:17.013Z,100859.78
2023-03-16T13:21:14.399Z,100861.63
2023-03-16T13:23:52.127Z,100849.25
2023-03-16T13:26:31.388Z,100832.63
2023-03-16T13:28:59.114Z,100838.88
2023-03-16T13:31:37.688Z,100834.56
2023-03-16T13:34:07.816Z,100829.38
2023-03-16T13:36:35.185Z,100835.59
2023-03-16T13:39:27.208Z,100822.25
2023-03-16T13:42:03.661Z,100817.75
2023-03-16T13:44:32.105Z,100816.88
2023-03-16T13:47:05.087Z,100810.75
2023-03-16T13:49:31.556Z,100810.78
2023-03-16T13:51:58.134Z,100810.81
2023-03-16T13:54:26.595Z,100799.41
2023-03-16T13:56:56.378Z,100781.81
2023-03-16T13:59:22.953Z,100788.97
2023-03-16T14:01:57.917Z,100796.06
2023-03-16T14:04:28.757Z,100793.50
2023-03-16T14:07:01.903Z,100790.03
2023-03-16T14:09:31.713Z,100783.88
2023-03-16T14:11:58.283Z,100776.75
2023-03-16T14:14:32.893Z,100775.00
2023-03-16T14:17:08.332Z,100768.81
2023-03-16T14:19:42.478Z,100773.25
2023-03-16T14:22:23.745Z,100770.59
2023-03-16T14:24:59.023Z,100767.06
2023-03-16T14:27:41.901Z,100760.06
2023-03-16T14:30:18.317Z,100761.06
2023-03-16T14:33:30.181Z,100749.66
2023-03-16T14:35:59.596Z,100747.88
2023-03-16T14:38:28.833Z,100746.06
2023-03-16T14:40:57.643Z,100747.78
2023-03-16T14:43:30.712Z,100740.66
2023-03-16T14:45:57.712Z,100733.53
2023-03-16T14:48:24.687Z,100737.94
2023-03-16T14:50:57.566Z,100739.69
2023-03-16T14:53:28.510Z,100741.50
2023-03-16T14:55:59.376Z,100735.34
2023-03-16T14:58:26.164Z,100728.28
2023-03-16T15:00:54.909Z,100725.63
2023-03-16T15:03:29.349Z,100728.28
2023-03-16T15:05:56.057Z,100715.03
2023-03-16T15:08:27.142Z,100713.28
2023-03-16T15:10:55.752Z,100702.66
2023-03-16T15:13:52.413Z,100701.75
2023-03-16T15:16:21.779Z,100696.38
2023-03-16T15:18:49.001Z,100691.88
2023-03-16T15:21:23.334Z,100691.81
2023-03-16T15:23:50.020Z,100679.38
2023-03-16T15:26:24.563Z,100690.81
2023-03-16T15:28:51.602Z,100687.22
2023-03-16T15:31:18.221Z,100675.66
2023-03-16T15:33:45.766Z,100669.44
2023-03-16T15:36:18.893Z,100680.81
2023-03-16T15:38:54.357Z,100684.34
2023-03-16T15:41:21.376Z,100679.88
2023-03-16T15:43:47.872Z,100675.50
2023-03-16T15:46:14.864Z,100673.81
2023-03-16T15:48:41.514Z,100665.88
2023-03-16T15:51:22.091Z,100670.34
2023-03-16T15:53:54.772Z,100671.25
2023-03-16T15:56:29.130Z,100669.44
2023-03-16T15:59:00.420Z,100658.75
2023-03-16T16:01:31.991Z,100652.44
2023-03-16T16:03:59.142Z,100646.13
2023-03-16T16:06:27.421Z,100648.69
2023-03-16T16:08:54.158Z,100639.75
2023-03-16T16:11:26.413Z,100641.38
2023-03-16T16:13:55.849Z,100645.66
2023-03-16T16:16:26.101Z,100642.03
2023-03-16T16:18:53.715Z,100631.31
2023-03-16T16:21:24.859Z,100630.31
2023-03-16T16:23:52.777Z,100620.50
2023-03-16T16:26:47.773Z,100611.59
2023-03-16T16:29:22.584Z,100604.44
2023-03-16T16:31:49.452Z,100606.06
2023-03-16T16:34:21.146Z,100627.06
2023-03-16T16:36:48.893Z,100626.13
2023-03-16T16:39:17.133Z,100631.31
2023-03-16T16:41:44.689Z,100622.34
2023-03-16T16:44:21.607Z,100631.13
2023-03-16T16:46:49.483Z,100627.56
2023-03-16T16:49:30.943Z,100608.03
2023-03-16T16:51:58.725Z,100613.16
2023-03-16T16:54:28.209Z,100626.25
2023-03-16T16:56:56.425Z,100618.25
2023-03-16T16:59:26.625Z,100610.19
2023-03-16T17:01:59.156Z,100607.44
2023-03-16T17:04:27.795Z,100592.34
2023-03-16T17:06:58.675Z,100598.41
2023-03-16T17:09:27.146Z,100596.50
2023-03-16T17:11:56.151Z,100593.72
2023-03-16T17:14:23.920Z,100606.78
2023-03-16T17:16:51.718Z,100602.34
2023-03-16T17:19:19.819Z,100606.63
2023-03-16T17:21:59.634Z,100605.66
2023-03-16T17:24:27.035Z,100607.34
2023-03-16T17:26:57.046Z,100602.91
2023-03-16T17:29:33.857Z,100594.03
2023-03-16T17:32:08.104Z,100579.97
2023-03-16T17:34:35.064Z,100580.75
2023-03-16T17:37:02.242Z,100578.00
2023-03-16T17:39:32.114Z,100573.53
2023-03-16T17:42:03.511Z,100582.25
2023-03-16T17:44:38.799Z,100583.00
2023-03-16T17:47:30.504Z,100583.81
2023-03-16T17:49:57.257Z,100582.88
2023-03-16T17:52:26.035Z,100577.50
2023-03-16T17:54:53.776Z,100573.06
2023-03-16T17:57:31.940Z,100580.03
2023-03-16T18:00:00.352Z,100579.94
2023-03-16T18:02:41.142Z,100579.91
2023-03-16T18:05:17.665Z,100591.22
2023-03-16T18:07:44.173Z,100592.06
2023-03-16T18:10:15.899Z,100589.31
2023-03-16T18:12:43.493Z,100576.03
2023-03-16T18:15:21.949Z,100569.81
2023-03-16T18:17:49.977Z,100563.56
2023-03-16T18:20:32.829Z,100574.03
2023-03-16T18:23:01.785Z,100579.25
2023-03-16T18:25:30.366Z,100573.91
2023-03-16T18:27:57.623Z,100582.63
2023-03-16T18:30:28.515Z,100573.69
2023-03-16T18:32:55.731Z,100579.78
2023-03-16T18:35:22.738Z,100582.38
2023-03-16T18:37:49.229Z,100580.59
2023-03-16T18:40:18.018Z,100566.50
2023-03-16T18:42:44.852Z,100560.34
2023-03-16T18:45:13.273Z,100564.69
2023-03-16T18:47:44.007Z,100557.59
2023-03-16T18:50:23.477Z,100556.66
2023-03-16T18:52:51.635Z,100560.22
2023-03-16T18:55:23.759Z,100561.94
2023-03-16T18:57:52.773Z,100562.88
2023-03-16T19:00:29.677Z,100560.22
2023-03-16T19:03:03.382Z,100557.56
2023-03-16T19:05:36.281Z,100559.31
2023-03-16T19:08:05.049Z,100550.47
2023-03-16T19:10:36.517Z,100553.13
2023-03-16T19:13:03.448Z,100559.25
2023-03-16T19:15:34.518Z,100553.88
2023-03-16T19:18:01.152Z,100551.16
2023-03-16T19:20:31.436Z,100552.84
2023-03-16T19:23:08.590Z,100547.50
2023-03-16T19:25:39.742Z,100536.84
2023-03-16T19:28:12.152Z,100543.75
2023-03-16T19:30:39.019Z,100540.16
2023-03-16T19:33:20.851Z,100535.63
2023-03-16T19:35:51.781Z,100534.66
2023-03-16T19:38:21.865Z,100530.91
2023-03-16T19:40:54.688Z,100526.38
2023-03-16T19:43:21.921Z,100528.00
2023-03-16T19:45:49.862Z,100522.59
2023-03-16T19:48:21.056Z,100517.13
2023-03-16T19:50:49.504Z,100519.63
2023-03-16T19:53:18.455Z,100515.94
2023-03-16T19:55:50.650Z,100513.16
2023-03-16T19:58:28.747Z,100509.50
2023-03-16T20:00:56.555Z,100505.88
2023-03-16T20:03:23.065Z,100512.84
2023-03-16T20:05:50.894Z,100514.53
2023-03-16T20:08:24.117Z,100517.06
2023-03-16T20:10:51.536Z,100516.91
2023-03-16T20:13:18.521Z,100505.41
2023-03-16T20:15:45.250Z,100510.59
2023-03-16T20:18:14.461Z,100502.63
2023-03-16T20:20:42.203Z,100499.91
2023-03-16T20:23:25.678Z,100504.19
2023-03-16T20:25:56.401Z,100505.00
2023-03-16T20:28:31.368Z,100497.06
2023-03-16T20:30:59.226Z,100492.63
2023-03-16T20:33:26.801Z,100488.22
2023-03-16T20:35:56.133Z,100490.84
2023-03-16T20:38:23.353Z,100483.84
2023-03-16T20:40:52.449Z,100482.16
2023-03-16T20:43:31.378Z,100486.63
2023-03-16T20:46:00.226Z,100474.34
2023-03-16T20:48:27.742Z,100484.06
2023-03-16T20:50:57.124Z,100471.84
2023-03-16T20:53:23.913Z,100466.66
2023-03-16T20:55:52.319Z,100466.69
2023-03-16T20:58:24.550Z,100461.53
2023-03-16T21:00:54.463Z,100465.97
2023-03-16T21:03:24.024Z,100463.34
2023-03-16T21:05:52.345Z,100450.22
2023-03-16T21:08:19.505Z,100455.56
2023-03-16T21:10:48.750Z,100456.41
2023-03-16T21:13:36.395Z,100452.94
2023-03-16T21:16:04.175Z,100450.38
2023-03-16T21:18:30.880Z,100456.56
2023-03-16T21:20:58.863Z,100445.16
2023-03-16T21:23:25.510Z,100439.06
2023-03-16T21:25:58.096Z,100446.97
2023-03-16T21:28:26.542Z,100443.47
2023-03-16T21:30:56.190Z,100443.47
2023-03-16T21:33:30.633Z,100435.56
2023-03-16T21:35:58.837Z,100432.94
2023-03-16T21:38:28.074Z,100432.13
2023-03-16T21:40:55.582Z,100429.50
2023-03-16T21:43:22.074Z,100431.19
2023-03-16T21:45:51.679Z,100419.75
2023-03-16T21:48:28.013Z,100417.94
2023-03-16T21:50:54.849Z,100416.19
2023-03-16T21:53:24.351Z,100416.16
2023-03-16T21:55:52.004Z,100405.59
2023-03-16T21:58:19.336Z,100403.81
2023-03-16T22:00:47.174Z,100394.97
2023-03-16T22:03:24.914Z,100389.72
2023-03-16T22:05:52.230Z,100386.25
2023-03-16T22:08:22.434Z,100386.25
2023-03-16T22:10:49.780Z,100379.22
2023-03-16T22:13:18.896Z,100359.88
2023-03-16T22:15:46.511Z,100356.31
2023-03-16T22:18:24.765Z,100359.81
2023-03-16T22:20:51.736Z,100361.50
2023-03-16T22:23:35.028Z,100361.47
2023-03-16T22:26:06.099Z,100358.81
2023-03-16T22:28:32.963Z,100350.91
2023-03-16T22:31:03.175Z,100349.97
2023-03-16T22:33:32.966Z,100342.91
2023-03-16T22:36:14.301Z,100342.88
2023-03-16T22:38:42.012Z,100347.22
2023-03-16T22:41:12.894Z,100336.66
2023-03-16T22:43:42.425Z,100330.50
2023-03-16T22:46:18.285Z,100338.34
2023-03-16T22:48:44.835Z,100329.53
2023-03-16T22:51:23.203Z,100329.47
2023-03-16T22:53:50.927Z,100329.47
2023-03-16T22:56:18.903Z,100327.66
2023-03-16T22:58:50.644Z,100322.38
2023-03-16T23:01:20.325Z,100318.84
2023-03-16T23:03:49.539Z,100319.72
2023-03-16T23:06:22.791Z,100311.84
2023-03-16T23:08:50.928Z,100310.06
2023-03-16T23:11:28.466Z,100306.56
2023-03-16T23:13:55.758Z,100289.00
2023-03-16T23:16:29.204Z,100294.25
2023-03-16T23:18:56.704Z,100269.72
2023-03-16T23:21:25.643Z,100280.25
2023-03-16T23:24:03.071Z,100275.91
2023-03-16T23:26:30.552Z,100278.53
2023-03-16T23:28:57.178Z,100263.63
2023-03-16T23:31:25.837Z,100278.56
2023-03-16T23:33:52.322Z,100277.69
2023-03-16T23:36:24.430Z,100275.03
2023-03-16T23:38:51.511Z,100268.94
2023-03-16T23:41:22.023Z,100275.97
2023-03-16T23:43:49.218Z,100280.38
2023-03-16T23:46:19.366Z,100269.91
2023-03-16T23:48:47.370Z,100268.16
2023-03-16T23:51:27.327Z,100263.81
2023-03-16T23:53:54.398Z,100273.50
2023-03-16T23:56:22.084Z,100267.38
2023-03-16T23:58:48.585Z,100271.78
